Карточка аэропорта URSS

Внимание!
Информация на этой странице в стадии наполнения.
Если вы не увидели какой-то информации, или заметили неточность - пожалуйста сообщите нам!
Спасибо!
Команда RU-STAFF
Название аэропортаСочи
Название аэропорта (англ.)Sochi
Превышение89 ft. (27.1 m.)
Координаты43°26.634', 39°56.55'
Высота перехода13000 ft
Эшелон переходаQNH>=977hPa: FL150; QNH<977hPa: FL160
Коды ответчика1060-1077
Зона ОрВДРостов-на-Дону РПИ (URRV)
Данные METARURSS 200200Z 04002MPS 9999 BKN050 22/20 Q1014 R02/010070 R06/010070 NOSIG RMK R06/08004MPS QFE759
Проноз погоды (TAF)URSS 200155Z 2003/2103 05003G08MPS 9999 SCT020 SCT100 BECMG 2005/2006 18003G08MPS BECMG 2008/2009 23003G08MPS FEW030CB SCT100 BECMG 2011/2012 28005G10MPS BECMG 2017/2018 05003G08MPS SCT040CB BKN100 TEMPO 2018/2102 -TSRA BKN016 SCT040CB OVC100
NOTAMshow/hide NOTAM
AWOS   TABLE

Информация о ВПП

ВПП Длина ВПП (м.) Покрытие Курс ВПП Частота ILS
062890Цементобетон58111.1
242890Цементобетон238 
022500Цементобетон22110.5
202500Цементобетон202 

Диспетчерские позиции

Позывной Наименование органа УВД Частота
URSSFM1119.000
URSS_APPСочи-Подход124.600
URSS_DELСочи-Деливери132.700
URSS_GNDСочи-Руление119.000
URSS_R_APPСочи-Круг119.700
URSS_TWRСочи-Старт121.200



Спутниковое изображение